Time;durP1;ratioP1;P1;durP2;ratioP2;P2;SDS_P1;SDS_P2;PMS_P1;PMS_P2;Temp;Humidity;BMP_temperature;BMP_pressure;BME280_temperature;BME280_humidity;BME280_pressure;Samples;Min_cycle;Max_cycle;Signal;HPM_P1;HPM_P2
2023/03/15 00:01:35;;;;;;;4.87;2.17;;;;;;;;;;5000951;28;20236;-54
2023/03/15 00:04:04;;;;;;;3.30;2.00;;;;;;;;;;5002682;28;20198;-53
2023/03/15 00:06:32;;;;;;;5.10;2.37;;;;;;;;;;5000865;28;20214;-54
2023/03/15 00:08:58;;;;;;;3.20;2.50;;;;;;;;;;5005227;28;20261;-53
2023/03/15 00:11:25;;;;;;;3.90;2.67;;;;;;;;;;5000627;28;20214;-53
2023/03/15 00:13:51;;;;;;;7.70;2.93;;;;;;;;;;5000222;28;20254;-54
2023/03/15 00:16:17;;;;;;;6.23;2.77;;;;;;;;;;5001294;28;20217;-54
2023/03/15 00:18:44;;;;;;;4.63;2.77;;;;;;;;;;5007115;28;20226;-53
2023/03/15 00:21:10;;;;;;;7.47;3.20;;;;;;;;;;5002411;28;20182;-54
2023/03/15 00:23:36;;;;;;;5.73;3.00;;;;;;;;;;5004865;28;20190;-54
2023/03/15 00:26:02;;;;;;;6.63;3.20;;;;;;;;;;4999059;28;20291;-53
2023/03/15 00:28:28;;;;;;;5.07;2.80;;;;;;;;;;5000595;28;20587;-54
2023/03/15 00:31:08;;;;;;;5.30;3.43;;;;;;;;;;5001213;28;20182;-53
2023/03/15 00:33:34;;;;;;;5.17;2.80;;;;;;;;;;5007834;28;20541;-55
2023/03/15 00:36:04;;;;;;;6.60;2.70;;;;;;;;;;5003322;28;20225;-54
2023/03/15 00:38:30;;;;;;;9.30;4.83;;;;;;;;;;5003721;28;20186;-54
2023/03/15 00:40:57;;;;;;;6.80;3.23;;;;;;;;;;5002345;28;20686;-54
2023/03/15 00:43:23;;;;;;;6.20;4.17;;;;;;;;;;5004572;28;20612;-55
2023/03/15 00:45:49;;;;;;;3.90;2.90;;;;;;;;;;4998121;28;20609;-54
2023/03/15 00:48:15;;;;;;;3.43;2.90;;;;;;;;;;5006804;28;20202;-55
2023/03/15 00:50:41;;;;;;;5.27;3.20;;;;;;;;;;4999458;28;20627;-54
2023/03/15 00:53:07;;;;;;;6.93;3.43;;;;;;;;;;4997310;28;20256;-54
2023/03/15 00:55:33;;;;;;;4.20;2.90;;;;;;;;;;5000952;28;20219;-54
2023/03/15 00:57:59;;;;;;;6.33;3.23;;;;;;;;;;5005210;28;20775;-54
2023/03/15 01:00:25;;;;;;;4.30;3.13;;;;;;;;;;5001201;28;20300;-54
2023/03/15 01:02:52;;;;;;;4.17;3.03;;;;;;;;;;5002798;28;20182;-54
2023/03/15 01:05:18;;;;;;;4.77;2.57;;;;;;;;;;5002944;28;20650;-54
2023/03/15 01:07:44;;;;;;;3.23;2.87;;;;;;;;;;4997033;28;20647;-54
2023/03/15 01:10:11;;;;;;;2.80;2.60;;;;;;;;;;5011101;28;20559;-55
2023/03/15 01:12:37;;;;;;;2.70;2.23;;;;;;;;;;5003586;28;20625;-53
2023/03/15 01:15:04;;;;;;;4.60;2.77;;;;;;;;;;5008644;28;20201;-55
2023/03/15 01:17:30;;;;;;;4.10;2.50;;;;;;;;;;5007412;28;20182;-54
2023/03/15 01:19:57;;;;;;;6.93;2.80;;;;;;;;;;5002375;28;20709;-54
2023/03/15 01:22:23;;;;;;;4.80;2.63;;;;;;;;;;5004138;28;20252;-54
2023/03/15 01:24:49;;;;;;;3.70;2.60;;;;;;;;;;5003289;28;20178;-54
2023/03/15 01:27:15;;;;;;;3.33;2.37;;;;;;;;;;5005012;28;20265;-53
2023/03/15 01:29:41;;;;;;;5.03;2.40;;;;;;;;;;5001257;28;20513;-54
2023/03/15 01:32:08;;;;;;;2.50;2.30;;;;;;;;;;5001423;28;20183;-54
2023/03/15 01:34:34;;;;;;;2.47;2.17;;;;;;;;;;5002352;28;20191;-54
2023/03/15 01:37:01;;;;;;;3.63;2.50;;;;;;;;;;5005916;28;20292;-53
2023/03/15 01:39:27;;;;;;;2.40;2.10;;;;;;;;;;5002971;28;20367;-54
2023/03/15 01:41:54;;;;;;;4.03;2.20;;;;;;;;;;5002611;28;20254;-54
2023/03/15 01:44:20;;;;;;;5.37;2.50;;;;;;;;;;5002072;28;20595;-54
2023/03/15 01:46:47;;;;;;;3.57;2.50;;;;;;;;;;5014836;28;20302;-54
2023/03/15 01:49:13;;;;;;;4.03;2.37;;;;;;;;;;5001828;28;20616;-53
2023/03/15 01:51:42;;;;;;;3.80;2.57;;;;;;;;;;5004247;28;20206;-54
2023/03/15 01:54:24;;;;;;;3.03;2.30;;;;;;;;;;4999328;28;20646;-56
2023/03/15 01:56:54;;;;;;;5.60;3.37;;;;;;;;;;5001309;28;20597;-54
2023/03/15 01:59:26;;;;;;;2.60;2.40;;;;;;;;;;4999372;28;20357;-54
2023/03/15 02:01:53;;;;;;;2.60;2.40;;;;;;;;;;5001226;28;20452;-54
2023/03/15 02:04:23;;;;;;;2.63;2.13;;;;;;;;;;5005856;28;20181;-53
2023/03/15 02:06:50;;;;;;;3.00;2.80;;;;;;;;;;4999582;28;20183;-53
2023/03/15 02:09:17;;;;;;;1.73;1.63;;;;;;;;;;4999486;28;20184;-53
2023/03/15 02:11:43;;;;;;;4.83;2.20;;;;;;;;;;4998738;28;20286;-53
2023/03/15 02:14:11;;;;;;;2.10;1.83;;;;;;;;;;5000018;28;20292;-54
2023/03/15 02:16:37;;;;;;;3.60;2.40;;;;;;;;;;5000301;28;20305;-54
2023/03/15 02:19:05;;;;;;;6.90;2.60;;;;;;;;;;5002696;28;20257;-55
2023/03/15 02:21:40;;;;;;;2.40;2.17;;;;;;;;;;5004359;28;20178;-53
2023/03/15 02:24:09;;;;;;;2.30;2.10;;;;;;;;;;4999914;28;20228;-53
2023/03/15 02:26:43;;;;;;;2.67;2.10;;;;;;;;;;5000149;28;20584;-54
2023/03/15 02:29:10;;;;;;;3.67;2.47;;;;;;;;;;4995834;28;20646;-53
2023/03/15 02:31:36;;;;;;;2.50;2.27;;;;;;;;;;5000603;28;20545;-52
2023/03/15 02:34:03;;;;;;;2.87;2.53;;;;;;;;;;5003245;28;20182;-53
2023/03/15 02:36:30;;;;;;;3.10;2.37;;;;;;;;;;5002879;28;20673;-53
2023/03/15 02:38:57;;;;;;;2.77;2.30;;;;;;;;;;5001971;28;20631;-53
2023/03/15 02:41:33;;;;;;;2.97;2.70;;;;;;;;;;5001298;28;20212;-54
2023/03/15 02:44:01;;;;;;;3.00;2.70;;;;;;;;;;5002228;28;20688;-53
2023/03/15 02:46:28;;;;;;;2.53;2.30;;;;;;;;;;4999128;28;20576;-54
2023/03/15 02:48:54;;;;;;;3.03;2.73;;;;;;;;;;5004769;28;20285;-53
2023/03/15 02:51:22;;;;;;;2.73;2.53;;;;;;;;;;5005773;28;20194;-53
2023/03/15 02:53:48;;;;;;;5.37;3.00;;;;;;;;;;5000193;28;20225;-53
2023/03/15 02:56:15;;;;;;;3.30;2.97;;;;;;;;;;5003758;28;20324;-53
2023/03/15 02:58:44;;;;;;;4.80;3.20;;;;;;;;;;5005602;28;20182;-53
2023/03/15 03:01:12;;;;;;;4.30;2.97;;;;;;;;;;4999258;28;20641;-54
2023/03/15 03:03:38;;;;;;;3.03;2.73;;;;;;;;;;5002798;28;20179;-53
2023/03/15 03:06:04;;;;;;;4.33;3.33;;;;;;;;;;4998040;28;20260;-53
2023/03/15 03:08:30;;;;;;;4.00;3.13;;;;;;;;;;4998639;28;20203;-53
2023/03/15 03:10:56;;;;;;;5.87;3.27;;;;;;;;;;4998531;28;20361;-54
2023/03/15 03:13:22;;;;;;;3.93;3.37;;;;;;;;;;5000186;28;20595;-53
2023/03/15 03:15:57;;;;;;;3.63;3.33;;;;;;;;;;4997461;28;20305;-53
2023/03/15 03:18:23;;;;;;;6.10;3.67;;;;;;;;;;5000363;28;20182;-53
2023/03/15 03:20:50;;;;;;;3.57;3.10;;;;;;;;;;5001534;28;20211;-53
2023/03/15 03:23:16;;;;;;;4.67;3.50;;;;;;;;;;4997123;28;20182;-53
2023/03/15 03:25:44;;;;;;;4.37;3.30;;;;;;;;;;5012866;28;20262;-53
2023/03/15 03:28:10;;;;;;;4.47;3.70;;;;;;;;;;5000228;28;20524;-54
2023/03/15 03:30:36;;;;;;;3.83;3.53;;;;;;;;;;5005149;28;20190;-53
2023/03/15 03:33:02;;;;;;;3.43;3.13;;;;;;;;;;5005876;28;20182;-53
2023/03/15 03:35:28;;;;;;;4.20;3.80;;;;;;;;;;5000308;28;20195;-54
2023/03/15 03:37:54;;;;;;;3.67;2.97;;;;;;;;;;5003192;28;20249;-54
2023/03/15 03:40:20;;;;;;;3.80;3.50;;;;;;;;;;5002247;28;20573;-54
2023/03/15 03:42:46;;;;;;;6.00;3.47;;;;;;;;;;5005804;28;20276;-53
2023/03/15 03:45:12;;;;;;;3.77;2.73;;;;;;;;;;5000567;28;20515;-53
2023/03/15 03:47:38;;;;;;;3.53;3.23;;;;;;;;;;5007999;28;20611;-53
2023/03/15 03:50:05;;;;;;;3.00;2.70;;;;;;;;;;5000592;28;20191;-53
2023/03/15 03:52:31;;;;;;;3.17;2.87;;;;;;;;;;4999027;28;20245;-53
2023/03/15 03:54:57;;;;;;;3.47;2.70;;;;;;;;;;4998957;28;20190;-53
2023/03/15 03:57:23;;;;;;;2.80;2.60;;;;;;;;;;5005922;28;20182;-53
2023/03/15 03:59:49;;;;;;;2.87;2.67;;;;;;;;;;4999392;28;20596;-53
2023/03/15 04:02:15;;;;;;;4.33;3.07;;;;;;;;;;5003975;28;20603;-53
2023/03/15 04:04:41;;;;;;;2.87;2.63;;;;;;;;;;4999000;28;20179;-54
2023/03/15 04:07:07;;;;;;;2.63;2.43;;;;;;;;;;5012320;28;20567;-54
2023/03/15 04:09:36;;;;;;;2.57;2.37;;;;;;;;;;5003719;28;20190;-53
2023/03/15 04:12:02;;;;;;;2.70;2.50;;;;;;;;;;5001109;28;20621;-54
2023/03/15 04:14:28;;;;;;;3.00;2.70;;;;;;;;;;4997892;28;20190;-53
2023/03/15 04:16:54;;;;;;;4.70;4.40;;;;;;;;;;5004382;28;20614;-53
2023/03/15 04:19:20;;;;;;;3.97;2.80;;;;;;;;;;5006230;28;20222;-53
2023/03/15 04:21:46;;;;;;;2.60;2.40;;;;;;;;;;5000461;28;20551;-53
2023/03/15 04:24:13;;;;;;;2.63;2.43;;;;;;;;;;5000884;28;20281;-53
2023/03/15 04:26:40;;;;;;;3.07;2.63;;;;;;;;;;4999124;28;20190;-55
2023/03/15 04:29:07;;;;;;;2.30;2.10;;;;;;;;;;5003607;28;20194;-56
2023/03/15 04:31:36;;;;;;;4.00;3.70;;;;;;;;;;5001877;28;20194;-54
2023/03/15 04:34:02;;;;;;;3.03;2.73;;;;;;;;;;5005084;28;20555;-54
2023/03/15 04:36:28;;;;;;;2.30;2.10;;;;;;;;;;5003153;28;20194;-54
2023/03/15 04:39:04;;;;;;;3.07;2.77;;;;;;;;;;4999531;28;20216;-53
2023/03/15 04:41:31;;;;;;;3.13;2.73;;;;;;;;;;4996576;28;20248;-53
2023/03/15 04:43:57;;;;;;;3.73;2.93;;;;;;;;;;4995206;28;20194;-54
2023/03/15 04:46:23;;;;;;;4.63;2.57;;;;;;;;;;5001125;28;20189;-53
2023/03/15 04:48:50;;;;;;;2.90;2.60;;;;;;;;;;5004942;28;20670;-53
2023/03/15 04:51:16;;;;;;;2.80;2.50;;;;;;;;;;5001055;28;20576;-53
2023/03/15 04:53:42;;;;;;;2.63;2.43;;;;;;;;;;5000192;28;20183;-53
2023/03/15 04:56:08;;;;;;;2.90;2.70;;;;;;;;;;5003006;28;20183;-54
2023/03/15 04:58:34;;;;;;;3.27;2.97;;;;;;;;;;5003978;28;20260;-53
2023/03/15 05:01:00;;;;;;;3.27;2.97;;;;;;;;;;4999564;28;20210;-53
2023/03/15 05:03:26;;;;;;;4.50;2.60;;;;;;;;;;4996086;28;20222;-53
2023/03/15 05:05:52;;;;;;;3.47;3.17;;;;;;;;;;5001859;28;20627;-53
2023/03/15 05:08:18;;;;;;;3.30;3.00;;;;;;;;;;5000150;28;20988;-54
2023/03/15 05:10:44;;;;;;;3.73;3.07;;;;;;;;;;4997872;28;20207;-54
2023/03/15 05:13:10;;;;;;;3.20;2.90;;;;;;;;;;5003396;28;20619;-54
2023/03/15 05:15:36;;;;;;;3.30;2.70;;;;;;;;;;4997665;28;20670;-53
2023/03/15 05:18:02;;;;;;;2.93;2.67;;;;;;;;;;4998800;28;20179;-54
2023/03/15 05:20:29;;;;;;;3.47;3.17;;;;;;;;;;4994726;28;20258;-53
2023/03/15 05:22:55;;;;;;;3.40;3.10;;;;;;;;;;4996937;28;20192;-53
2023/03/15 05:25:23;;;;;;;3.50;3.20;;;;;;;;;;4996953;28;20182;-54
2023/03/15 05:27:49;;;;;;;3.40;3.10;;;;;;;;;;5003681;28;20187;-53
2023/03/15 05:30:15;;;;;;;3.53;3.20;;;;;;;;;;4998148;28;20726;-53
2023/03/15 05:32:43;;;;;;;5.63;3.87;;;;;;;;;;4998319;28;20198;-53
2023/03/15 05:35:10;;;;;;;4.37;3.97;;;;;;;;;;4994640;28;20258;-54
2023/03/15 05:37:36;;;;;;;4.90;4.40;;;;;;;;;;5000864;28;20701;-54
2023/03/15 05:40:03;;;;;;;4.83;3.80;;;;;;;;;;4997306;28;20305;-53
2023/03/15 05:42:29;;;;;;;4.87;4.20;;;;;;;;;;4994953;28;20187;-53
2023/03/15 05:44:56;;;;;;;4.83;4.43;;;;;;;;;;4995524;28;20191;-54
2023/03/15 05:47:22;;;;;;;4.73;4.33;;;;;;;;;;5005310;28;20193;-53
2023/03/15 05:49:49;;;;;;;4.73;3.97;;;;;;;;;;4999726;28;20269;-53
2023/03/15 05:52:16;;;;;;;5.07;4.67;;;;;;;;;;5005684;28;20186;-54
2023/03/15 05:54:42;;;;;;;5.50;5.00;;;;;;;;;;4998033;28;20676;-54
2023/03/15 05:57:08;;;;;;;5.40;4.90;;;;;;;;;;5002409;28;20320;-54
2023/03/15 05:59:37;;;;;;;5.73;4.87;;;;;;;;;;4997408;28;20226;-54
2023/03/15 06:02:03;;;;;;;5.67;5.17;;;;;;;;;;5003365;28;20662;-54
2023/03/15 06:04:29;;;;;;;6.80;6.03;;;;;;;;;;5002311;28;20186;-53
2023/03/15 06:06:55;;;;;;;5.53;5.03;;;;;;;;;;4997078;28;20186;-54
2023/03/15 06:09:21;;;;;;;6.60;5.70;;;;;;;;;;5003769;28;20190;-54
2023/03/15 06:11:47;;;;;;;5.93;5.33;;;;;;;;;;4999381;28;20211;-54
2023/03/15 06:14:13;;;;;;;6.27;5.67;;;;;;;;;;5004686;28;20182;-54
2023/03/15 06:16:39;;;;;;;6.27;5.50;;;;;;;;;;5012126;28;20194;-54
2023/03/15 06:19:05;;;;;;;5.80;5.30;;;;;;;;;;5001423;28;20237;-54
2023/03/15 06:21:31;;;;;;;5.30;4.80;;;;;;;;;;5002549;28;20194;-54
2023/03/15 06:23:57;;;;;;;5.97;5.47;;;;;;;;;;5003760;28;20183;-54
2023/03/15 06:26:23;;;;;;;5.80;5.30;;;;;;;;;;5000319;28;20183;-54
2023/03/15 06:28:49;;;;;;;6.40;5.80;;;;;;;;;;5005989;28;20601;-54
2023/03/15 06:31:15;;;;;;;6.53;5.93;;;;;;;;;;5003719;28;20267;-54
2023/03/15 06:33:42;;;;;;;6.37;5.77;;;;;;;;;;4999657;28;20186;-54
2023/03/15 06:36:08;;;;;;;6.63;5.80;;;;;;;;;;5003024;28;20196;-54
2023/03/15 06:38:34;;;;;;;6.43;5.77;;;;;;;;;;4999621;28;20754;-54
2023/03/15 06:41:00;;;;;;;7.77;6.90;;;;;;;;;;4994467;28;20662;-54
2023/03/15 06:43:27;;;;;;;7.80;6.23;;;;;;;;;;4991166;28;20183;-54
2023/03/15 06:45:54;;;;;;;7.43;6.73;;;;;;;;;;4997018;28;20183;-54
2023/03/15 06:48:21;;;;;;;6.53;5.93;;;;;;;;;;5001340;28;20179;-54
2023/03/15 06:50:47;;;;;;;6.77;6.10;;;;;;;;;;5001912;28;20277;-54
2023/03/15 06:53:13;;;;;;;7.90;6.67;;;;;;;;;;5001149;28;20274;-54
2023/03/15 06:55:39;;;;;;;7.37;6.07;;;;;;;;;;5004197;28;20198;-54
2023/03/15 06:58:05;;;;;;;7.30;6.60;;;;;;;;;;5002587;28;21290;-54
2023/03/15 07:00:31;;;;;;;7.30;6.60;;;;;;;;;;5000402;28;20210;-54
2023/03/15 07:02:57;;;;;;;6.87;6.17;;;;;;;;;;5004463;28;20332;-54
2023/03/15 07:05:23;;;;;;;7.17;6.43;;;;;;;;;;5007165;28;20190;-55
2023/03/15 07:07:49;;;;;;;6.57;5.87;;;;;;;;;;5008886;28;20584;-54
2023/03/15 07:10:15;;;;;;;7.23;6.53;;;;;;;;;;5007154;28;20184;-54
2023/03/15 07:12:42;;;;;;;6.90;6.10;;;;;;;;;;4998009;28;20691;-54
2023/03/15 07:15:08;;;;;;;7.43;6.60;;;;;;;;;;4988358;28;20217;-54
2023/03/15 07:17:34;;;;;;;7.60;6.90;;;;;;;;;;4993633;28;20191;-54
2023/03/15 07:20:00;;;;;;;7.47;6.47;;;;;;;;;;5004295;28;20915;-54
2023/03/15 07:22:26;;;;;;;10.53;6.60;;;;;;;;;;5005886;28;20590;-54
2023/03/15 07:24:52;;;;;;;8.30;6.50;;;;;;;;;;4998340;28;20175;-55
2023/03/15 07:27:18;;;;;;;7.13;6.43;;;;;;;;;;5004015;28;20271;-54
2023/03/15 07:29:45;;;;;;;9.10;6.80;;;;;;;;;;5005047;28;20788;-53
2023/03/15 07:32:11;;;;;;;9.03;6.53;;;;;;;;;;5005930;28;20205;-53
2023/03/15 07:34:37;;;;;;;7.20;6.47;;;;;;;;;;5010876;28;20610;-53
2023/03/15 07:37:03;;;;;;;7.00;6.30;;;;;;;;;;5001919;28;20643;-53
2023/03/15 07:39:31;;;;;;;7.43;6.67;;;;;;;;;;4996824;28;20280;-53
2023/03/15 07:41:57;;;;;;;6.73;5.93;;;;;;;;;;5003135;28;20667;-53
2023/03/15 07:44:23;;;;;;;7.00;6.30;;;;;;;;;;5005484;28;20190;-53
2023/03/15 07:46:49;;;;;;;7.00;6.30;;;;;;;;;;4995401;28;20665;-53
2023/03/15 07:49:16;;;;;;;6.90;6.10;;;;;;;;;;5003206;28;20223;-52
2023/03/15 07:51:42;;;;;;;7.30;6.10;;;;;;;;;;5003012;28;20248;-53
2023/03/15 07:54:08;;;;;;;7.27;5.97;;;;;;;;;;4997517;28;20366;-56
2023/03/15 07:56:34;;;;;;;6.87;6.17;;;;;;;;;;5001493;28;20282;-53
2023/03/15 07:59:00;;;;;;;7.07;5.80;;;;;;;;;;5002769;28;20186;-54
2023/03/15 08:01:26;;;;;;;7.13;6.17;;;;;;;;;;5007373;28;20234;-54
2023/03/15 08:03:52;;;;;;;6.77;5.97;;;;;;;;;;5001360;28;20197;-54
2023/03/15 08:06:18;;;;;;;8.03;5.83;;;;;;;;;;5001591;28;20216;-53
2023/03/15 08:08:45;;;;;;;7.20;5.77;;;;;;;;;;5001082;28;20248;-53
2023/03/15 08:11:11;;;;;;;9.57;5.93;;;;;;;;;;5004137;28;20214;-53
2023/03/15 08:13:37;;;;;;;8.60;6.07;;;;;;;;;;5000590;28;20592;-53
2023/03/15 08:16:03;;;;;;;6.50;5.33;;;;;;;;;;5003128;28;20240;-53
2023/03/15 08:18:30;;;;;;;10.43;5.67;;;;;;;;;;5002690;28;20607;-53
2023/03/15 08:20:56;;;;;;;6.63;5.40;;;;;;;;;;5000070;28;20222;-54
2023/03/15 08:23:22;;;;;;;6.73;5.33;;;;;;;;;;5004161;28;20201;-53
2023/03/15 08:25:48;;;;;;;6.73;5.53;;;;;;;;;;5006862;28;20665;-53
2023/03/15 08:28:15;;;;;;;6.93;5.73;;;;;;;;;;4999822;28;20175;-53
2023/03/15 08:30:41;;;;;;;5.70;4.87;;;;;;;;;;4997496;28;20570;-53
2023/03/15 08:33:07;;;;;;;7.10;6.20;;;;;;;;;;4996338;28;20555;-52
2023/03/15 08:35:33;;;;;;;11.93;5.87;;;;;;;;;;5001993;28;20591;-53
2023/03/15 08:38:01;;;;;;;7.33;5.23;;;;;;;;;;4999157;28;20190;-53
2023/03/15 08:40:27;;;;;;;7.20;5.00;;;;;;;;;;4997274;28;20195;-53
2023/03/15 08:42:54;;;;;;;6.93;5.23;;;;;;;;;;5001976;28;20682;-53
2023/03/15 08:45:20;;;;;;;7.63;5.83;;;;;;;;;;5000960;28;20203;-53
2023/03/15 08:47:46;;;;;;;7.77;6.13;;;;;;;;;;5002894;28;20180;-53
2023/03/15 08:50:13;;;;;;;6.23;4.73;;;;;;;;;;5002159;28;20362;-54
2023/03/15 08:52:40;;;;;;;7.63;4.83;;;;;;;;;;5003108;28;20187;-53
2023/03/15 08:55:06;;;;;;;5.40;4.90;;;;;;;;;;4998798;28;20261;-53
2023/03/15 08:57:32;;;;;;;9.07;5.57;;;;;;;;;;5008180;28;20739;-54
2023/03/15 09:00:00;;;;;;;7.13;5.03;;;;;;;;;;5009545;28;20799;-53
2023/03/15 09:02:26;;;;;;;5.30;4.63;;;;;;;;;;5003894;28;20190;-53
2023/03/15 09:04:52;;;;;;;6.33;5.73;;;;;;;;;;4997743;28;20187;-54
2023/03/15 09:07:19;;;;;;;6.60;4.80;;;;;;;;;;5005522;28;20193;-53
2023/03/15 09:09:47;;;;;;;5.57;4.63;;;;;;;;;;5001437;28;20191;-53
2023/03/15 09:12:13;;;;;;;5.60;4.97;;;;;;;;;;4996332;28;20277;-53
2023/03/15 09:14:39;;;;;;;9.53;5.30;;;;;;;;;;5002961;28;20202;-53
2023/03/15 09:17:05;;;;;;;5.63;5.10;;;;;;;;;;5003462;28;20676;-54
2023/03/15 09:19:31;;;;;;;5.53;5.03;;;;;;;;;;4998188;28;20238;-53
2023/03/15 09:21:57;;;;;;;8.40;5.43;;;;;;;;;;4998601;28;20194;-53
2023/03/15 09:24:23;;;;;;;5.73;4.77;;;;;;;;;;4997961;28;20745;-53
2023/03/15 09:26:49;;;;;;;7.60;5.40;;;;;;;;;;5002287;28;20354;-53
2023/03/15 09:29:15;;;;;;;7.60;5.60;;;;;;;;;;4999779;28;20183;-55
2023/03/15 09:31:41;;;;;;;7.47;5.10;;;;;;;;;;4998781;28;20647;-54
2023/03/15 09:34:07;;;;;;;9.30;5.20;;;;;;;;;;4997015;28;20986;-54
2023/03/15 09:36:34;;;;;;;5.87;4.87;;;;;;;;;;5008303;28;20191;-54
2023/03/15 09:39:00;;;;;;;9.97;5.63;;;;;;;;;;4995892;28;20301;-54
2023/03/15 09:41:40;;;;;;;6.80;4.30;;;;;;;;;;5005507;28;20195;-54
2023/03/15 09:44:12;;;;;;;6.23;4.80;;;;;;;;;;4997181;28;20195;-53
2023/03/15 09:47:00;;;;;;;6.50;5.33;;;;;;;;;;5002569;28;20662;-53
2023/03/15 09:49:32;;;;;;;6.93;4.90;;;;;;;;;;4994317;28;20182;-53
2023/03/15 09:52:05;;;;;;;5.27;4.77;;;;;;;;;;4999230;28;20173;-54
2023/03/15 09:54:44;;;;;;;5.37;4.70;;;;;;;;;;4998254;28;20191;-53
2023/03/15 09:57:14;;;;;;;8.20;5.70;;;;;;;;;;4993802;28;20219;-54
2023/03/15 09:59:44;;;;;;;7.00;5.67;;;;;;;;;;4997245;28;20267;-54
2023/03/15 10:02:19;;;;;;;5.87;5.27;;;;;;;;;;4999152;28;20261;-54
2023/03/15 10:04:47;;;;;;;5.23;4.67;;;;;;;;;;4997100;28;20559;-54
2023/03/15 10:07:15;;;;;;;7.37;4.77;;;;;;;;;;5003214;28;20297;-54
2023/03/15 10:09:42;;;;;;;4.93;4.43;;;;;;;;;;4996513;28;20212;-54
2023/03/15 10:12:08;;;;;;;6.13;5.00;;;;;;;;;;4998793;28;20241;-54
2023/03/15 10:14:49;;;;;;;5.07;4.23;;;;;;;;;;4997945;28;20262;-54
2023/03/15 10:17:20;;;;;;;8.33;4.80;;;;;;;;;;5000208;28;20199;-54
2023/03/15 10:20:00;;;;;;;7.50;5.00;;;;;;;;;;4997286;28;20288;-55
2023/03/15 10:22:34;;;;;;;6.23;4.70;;;;;;;;;;4995603;28;20224;-54
2023/03/15 10:25:15;;;;;;;7.17;4.90;;;;;;;;;;5001898;28;20533;-55
2023/03/15 10:27:42;;;;;;;6.37;4.60;;;;;;;;;;4995339;28;20481;-55
2023/03/15 10:30:14;;;;;;;4.93;4.37;;;;;;;;;;4994764;28;20191;-55
2023/03/15 10:32:43;;;;;;;5.83;4.70;;;;;;;;;;4998640;28;20187;-55
2023/03/15 10:35:16;;;;;;;6.30;4.70;;;;;;;;;;4996628;28;20214;-55
2023/03/15 10:37:42;;;;;;;5.77;4.83;;;;;;;;;;5001069;28;20187;-55
2023/03/15 10:40:14;;;;;;;9.37;4.67;;;;;;;;;;4996680;28;20626;-55
2023/03/15 10:42:42;;;;;;;6.67;4.30;;;;;;;;;;5001512;28;20174;-55
2023/03/15 10:45:19;;;;;;;4.83;3.83;;;;;;;;;;4999975;28;20186;-55
2023/03/15 10:47:46;;;;;;;6.30;4.47;;;;;;;;;;5005783;28;20651;-55
2023/03/15 10:50:25;;;;;;;9.10;4.07;;;;;;;;;;5010229;28;20657;-55
2023/03/15 10:52:54;;;;;;;6.07;4.50;;;;;;;;;;5005069;28;20209;-55
2023/03/15 10:55:26;;;;;;;5.90;4.17;;;;;;;;;;5004181;28;20182;-55
2023/03/15 10:57:58;;;;;;;6.23;3.67;;;;;;;;;;5000067;28;20657;-55
2023/03/15 11:00:24;;;;;;;6.33;4.27;;;;;;;;;;4998192;28;20234;-55
2023/03/15 11:02:51;;;;;;;6.50;3.87;;;;;;;;;;5006757;28;20182;-55
2023/03/15 11:05:18;;;;;;;7.47;4.37;;;;;;;;;;5012008;28;20177;-55
2023/03/15 11:07:54;;;;;;;5.07;4.20;;;;;;;;;;5001114;28;20213;-55
2023/03/15 11:10:22;;;;;;;5.33;4.23;;;;;;;;;;5006470;28;20196;-55
2023/03/15 11:12:48;;;;;;;6.33;3.37;;;;;;;;;;5000182;28;20309;-55
2023/03/15 11:15:15;;;;;;;5.67;4.77;;;;;;;;;;5006094;28;20567;-55
2023/03/15 11:17:43;;;;;;;4.57;3.60;;;;;;;;;;5004329;28;20191;-55
2023/03/15 11:20:29;;;;;;;4.93;3.87;;;;;;;;;;4999266;28;20763;-55
2023/03/15 11:22:55;;;;;;;5.37;3.20;;;;;;;;;;5002590;28;20178;-55
2023/03/15 11:25:23;;;;;;;6.27;3.60;;;;;;;;;;4999626;28;20650;-55
2023/03/15 11:27:52;;;;;;;3.27;2.90;;;;;;;;;;4999073;28;20539;-54
2023/03/15 11:30:21;;;;;;;6.03;3.80;;;;;;;;;;4997095;28;20662;-54
2023/03/15 11:32:47;;;;;;;8.80;4.43;;;;;;;;;;5002799;28;20186;-54
2023/03/15 11:35:13;;;;;;;5.77;3.77;;;;;;;;;;5004686;28;20190;-54
2023/03/15 11:37:45;;;;;;;3.73;2.90;;;;;;;;;;4998346;28;20291;-54
2023/03/15 11:40:21;;;;;;;5.57;3.53;;;;;;;;;;5003270;28;20199;-54
2023/03/15 11:43:01;;;;;;;4.70;3.30;;;;;;;;;;5000778;28;20208;-54
2023/03/15 11:45:32;;;;;;;8.80;3.00;;;;;;;;;;4997882;28;20296;-54
2023/03/15 11:48:01;;;;;;;4.63;3.20;;;;;;;;;;5002710;28;20202;-53
2023/03/15 11:50:27;;;;;;;5.17;2.90;;;;;;;;;;5003067;28;20257;-53
2023/03/15 11:52:53;;;;;;;4.07;2.97;;;;;;;;;;4999138;28;20201;-54
2023/03/15 11:55:28;;;;;;;4.73;2.63;;;;;;;;;;4999088;28;20253;-54
2023/03/15 11:57:56;;;;;;;5.30;2.67;;;;;;;;;;5004929;28;20514;-55
2023/03/15 12:00:25;;;;;;;4.57;2.87;;;;;;;;;;5001533;28;20249;-54
2023/03/15 12:03:00;;;;;;;3.40;2.50;;;;;;;;;;5004479;28;20190;-55
2023/03/15 12:05:46;;;;;;;4.00;2.50;;;;;;;;;;5001483;28;20190;-55
2023/03/15 12:08:16;;;;;;;6.07;2.60;;;;;;;;;;5001939;28;20210;-55
2023/03/15 12:10:45;;;;;;;4.60;2.63;;;;;;;;;;5001492;28;20222;-55
2023/03/15 12:13:25;;;;;;;3.77;2.50;;;;;;;;;;5000429;28;20171;-55
2023/03/15 12:15:52;;;;;;;2.83;2.33;;;;;;;;;;5001631;28;20186;-54
2023/03/15 12:18:19;;;;;;;4.63;2.70;;;;;;;;;;5004896;28;20600;-55
2023/03/15 12:20:50;;;;;;;3.17;2.37;;;;;;;;;;5002918;28;20206;-55
2023/03/15 12:23:19;;;;;;;2.33;1.90;;;;;;;;;;4999855;28;20174;-55
2023/03/15 12:25:53;;;;;;;4.30;2.57;;;;;;;;;;5002320;28;20203;-55
2023/03/15 12:28:20;;;;;;;3.97;3.00;;;;;;;;;;5002253;28;20187;-55
2023/03/15 12:30:52;;;;;;;4.37;2.73;;;;;;;;;;4998219;28;20700;-55
2023/03/15 12:33:20;;;;;;;3.07;2.20;;;;;;;;;;4997523;28;20273;-55
2023/03/15 12:35:47;;;;;;;2.40;2.20;;;;;;;;;;5001546;28;20278;-55
2023/03/15 12:38:21;;;;;;;2.90;2.27;;;;;;;;;;5003841;28;20294;-55
2023/03/15 12:40:51;;;;;;;5.00;2.20;;;;;;;;;;5002033;28;20211;-55
2023/03/15 12:43:34;;;;;;;1.80;1.70;;;;;;;;;;4997896;28;20540;-56
2023/03/15 12:46:00;;;;;;;2.00;1.53;;;;;;;;;;4999560;28;20182;-55
2023/03/15 12:48:27;;;;;;;4.00;2.03;;;;;;;;;;5004887;28;20181;-55
2023/03/15 12:50:54;;;;;;;3.93;2.03;;;;;;;;;;5005609;28;20663;-55
2023/03/15 12:53:23;;;;;;;3.37;2.40;;;;;;;;;;4999464;28;20315;-55
2023/03/15 12:55:51;;;;;;;5.33;2.00;;;;;;;;;;5000359;28;20698;-55
2023/03/15 12:58:18;;;;;;;4.63;2.10;;;;;;;;;;4998756;28;20186;-55
2023/03/15 13:00:45;;;;;;;3.03;2.07;;;;;;;;;;4998773;28;20209;-55
2023/03/15 13:03:15;;;;;;;3.83;2.40;;;;;;;;;;5000935;28;20203;-55
2023/03/15 13:06:00;;;;;;;1.67;1.50;;;;;;;;;;5001699;28;20232;-55
2023/03/15 13:08:42;;;;;;;3.70;1.83;;;;;;;;;;5003425;28;20190;-55
2023/03/15 13:11:16;;;;;;;1.80;1.33;;;;;;;;;;4991926;28;20207;-57
2023/03/15 13:13:43;;;;;;;4.60;1.90;;;;;;;;;;5002166;28;20866;-58
2023/03/15 13:16:18;;;;;;;3.43;1.73;;;;;;;;;;5000352;28;20237;-57
2023/03/15 13:18:51;;;;;;;2.17;1.60;;;;;;;;;;5001726;28;20698;-57
2023/03/15 13:21:17;;;;;;;3.77;2.30;;;;;;;;;;4999998;28;20625;-57
2023/03/15 13:23:46;;;;;;;4.40;1.70;;;;;;;;;;5001059;28;20182;-57
2023/03/15 13:26:19;;;;;;;2.03;1.80;;;;;;;;;;4994499;28;20244;-56
2023/03/15 13:28:50;;;;;;;6.80;2.00;;;;;;;;;;5001331;28;20182;-57
2023/03/15 13:31:24;;;;;;;2.30;2.10;;;;;;;;;;5001738;28;20183;-57
2023/03/15 13:33:56;;;;;;;2.37;1.60;;;;;;;;;;4999149;28;20249;-57
2023/03/15 13:36:24;;;;;;;1.70;1.60;;;;;;;;;;4998313;28;20185;-56
2023/03/15 13:38:52;;;;;;;1.60;1.50;;;;;;;;;;5002544;28;20614;-57
2023/03/15 13:41:18;;;;;;;7.63;2.57;;;;;;;;;;5000613;28;20266;-56
2023/03/15 13:43:45;;;;;;;1.60;1.50;;;;;;;;;;4997914;28;20206;-56
2023/03/15 13:46:11;;;;;;;2.33;1.60;;;;;;;;;;4997989;28;20520;-56
2023/03/15 13:48:41;;;;;;;4.43;2.33;;;;;;;;;;5003755;28;20174;-56
2023/03/15 13:51:07;;;;;;;1.97;1.50;;;;;;;;;;4995247;28;20237;-56
2023/03/15 13:53:34;;;;;;;1.90;1.40;;;;;;;;;;4996764;28;20198;-56
2023/03/15 13:56:00;;;;;;;2.23;1.57;;;;;;;;;;5001144;28;20824;-56
2023/03/15 13:58:27;;;;;;;3.47;1.63;;;;;;;;;;4997148;28;20655;-55
2023/03/15 14:00:58;;;;;;;1.97;1.57;;;;;;;;;;4998351;28;20242;-55
2023/03/15 14:03:25;;;;;;;1.90;1.37;;;;;;;;;;5000503;28;20183;-55
2023/03/15 14:05:52;;;;;;;2.77;1.57;;;;;;;;;;4999607;28;20179;-55
2023/03/15 14:08:18;;;;;;;1.70;1.40;;;;;;;;;;4998935;28;20194;-55
2023/03/15 14:10:56;;;;;;;3.87;1.50;;;;;;;;;;5000756;28;20226;-55
2023/03/15 14:13:45;;;;;;;1.63;1.37;;;;;;;;;;4992515;28;20183;-56
2023/03/15 14:16:16;;;;;;;1.40;1.30;;;;;;;;;;4992458;28;20717;-56
2023/03/15 14:18:42;;;;;;;1.73;1.43;;;;;;;;;;5002682;28;20246;-56
2023/03/15 14:21:12;;;;;;;2.00;1.80;;;;;;;;;;5001390;28;20420;-56
2023/03/15 14:23:40;;;;;;;5.70;1.80;;;;;;;;;;5003892;28;20182;-58
2023/03/15 14:26:06;;;;;;;3.33;1.60;;;;;;;;;;4998458;28;20613;-56
2023/03/15 14:28:32;;;;;;;1.47;1.30;;;;;;;;;;4997078;28;20174;-56
2023/03/15 14:30:59;;;;;;;3.93;2.00;;;;;;;;;;4994660;28;20188;-56
2023/03/15 14:33:25;;;;;;;3.13;2.07;;;;;;;;;;4998432;28;20194;-56
2023/03/15 14:35:53;;;;;;;2.93;1.50;;;;;;;;;;5000080;28;20608;-56
2023/03/15 14:38:22;;;;;;;2.80;1.80;;;;;;;;;;4998502;28;20190;-56
2023/03/15 14:40:49;;;;;;;2.63;1.83;;;;;;;;;;4996028;28;20253;-57
2023/03/15 14:43:15;;;;;;;1.60;1.37;;;;;;;;;;4996301;28;20273;-57
2023/03/15 14:45:42;;;;;;;2.70;1.83;;;;;;;;;;4997150;28;20604;-56
2023/03/15 14:48:14;;;;;;;2.93;1.50;;;;;;;;;;4994379;28;20895;-56